createdAt,value
2022-10-11T03:03:56.116Z,1.53
2022-10-11T03:18:49.577Z,2.46
2022-10-11T03:48:50.091Z,2.93
2022-10-11T04:03:54.827Z,5.11
2022-10-11T04:18:49.144Z,1.66
2022-10-11T04:33:49.942Z,6.55
2022-10-11T04:48:50.352Z,1.84
2022-10-11T05:18:49.820Z,2.36
2022-10-11T05:33:49.423Z,2.83
2022-10-11T05:48:48.917Z,3.45
2022-10-11T06:03:48.778Z,4.97
2022-10-11T06:18:49.126Z,5.93
2022-10-11T06:33:48.766Z,9.17
2022-10-11T06:48:49.335Z,7.12
2022-10-11T07:03:48.814Z,6.42
2022-10-11T07:18:50.282Z,2.92
2022-10-11T07:33:48.844Z,1.84
2022-10-11T07:48:49.514Z,2.39
2022-10-11T08:03:48.530Z,1.34
2022-10-11T08:18:48.773Z,3.11
2022-10-11T08:33:48.952Z,1.81
2022-10-11T08:48:48.943Z,1.87
2022-10-11T09:03:48.802Z,4.11
2022-10-11T09:18:48.624Z,1.79
2022-10-11T09:33:49.194Z,2
2022-10-11T09:48:48.441Z,1.61
2022-10-11T10:03:49.019Z,1.21
2022-10-11T10:18:48.497Z,1.51
2022-10-11T10:33:49.114Z,1.14
2022-10-11T10:49:23.500Z,1.41
2022-10-11T11:03:48.628Z,1.61
2022-10-11T11:33:49.082Z,1.75
2022-10-11T11:48:49.228Z,2.38
2022-10-11T12:03:49.166Z,2.23
2022-10-11T12:18:49.145Z,2.07
2022-10-11T12:33:49.185Z,2.09
2022-10-11T12:48:49.293Z,2.6
2022-10-11T13:03:48.729Z,2.63
2022-10-11T13:18:48.590Z,2.52
2022-10-11T15:03:49.125Z,8.99
2022-10-11T15:18:49.125Z,5.75
2022-10-11T15:33:48.731Z,6.28
2022-10-11T15:48:48.461Z,4.88
2022-10-11T16:03:49.145Z,6.04
2022-10-11T16:18:49.197Z,8.99
2022-10-11T16:33:49.296Z,6.94
2022-10-11T16:48:49.105Z,8.26
2022-10-11T17:03:48.881Z,7.57
2022-10-11T17:18:49.031Z,7.09
2022-10-11T17:33:49.304Z,5.8
2022-10-11T17:48:49.194Z,6.24
2022-10-11T18:03:49.123Z,6.59
2022-10-11T18:18:48.952Z,7.11
